VTSE/CJM METAR and TAF weather

Enter ICAO airport designator
Station Type Date Time Source
VTSE METAR 2019/06/18 11:00 UTC NOAA

VTSE 181100Z 26003KT 220V300 9999 FEW020 BKN100 26/25 Q1007 NOSIG


Station Type Date Time Source
VTSE Decoded METAR 2019/06/18 11:00 UTC NOAA

Station name not available
Jun 18, 2019 - 07:00 AM EDT / 2019.06.18 1100 UTC
Wind: from the W (260 degrees) at 3 MPH (3 KT) (direction variable):0
Visibility: greater than 7 mile(s):0
Sky conditions: mostly cloudy
Temperature: 78 F (26 C)
Dew Point: 77 F (25 C)
Relative Humidity: 94%
Pressure (altimeter): 29.74 in. Hg (1007 hPa)
ob: VTSE 181100Z 26003KT 220V300 9999 FEW020 BKN100 26/25 Q1007 NOSIG
cycle: 11

Station Type Date Time Source
VTSE TAF 2019/06/18 12:00 UTC NOAA

TAF VTSE 181100Z 1812/1912 26005KT 9999 FEW020 BKN100
TEMPO 1822/1904 5000 RA SCT015 OVC100
TEMPO 1906/1912 26010G20KT 5000 TSRA FEW016CB SCT018 OVC100

Example: see airport list